1990 JOSEPHINE (1990264N14328)


On this page: IBTrACS data - Map and Plots - Positions - Intensities - Original source data

Summary

Start Sep 21
End Oct 6
Basin NA
LMI 75 kt
Sources hurdat_atl
atcf
In WMO? Yes
Previous storm 1991 HSK0191 (SI)
Previous in basin 1990 MISSING (NA)
Concurrent storms 1990 FLO (WP)
1990 GENE (WP)
1990 MISSING (NA)
1991 HSK0191 (SI)
1990 JOSEPHINE (NA)
1990 ODILE (EP)
1990 RACHEL (EP)
1990 HATTIE (WP)
1990 POLO (EP)
1990 IRA (WP)
1990 KLAUS (NA)
1990 LILI (NA)
1990 MISSING (NI)
Next in basin 1990 RACHEL (EP)
Next storm 1990 ODILE (EP)

top of page IBTrACS Data: File Access

top of page HURSAT Data: File Access

Image of storm

top of page Plots:

Map of storm track will not appear if FTP is down
Time series of cyclone Maximum Sustained Wind will not appear if FTP is down
Time series of cyclone Minimum Central Pressure will not appear if FTP is down

top of page Track Data:Position

hurdat_atl atcf
Date Lat Lon Lat Lon
1990-09-21 06:00:00 14.0 -32.0 14.0 -32.0
1990-09-21 12:00:00 14.5 -32.4 14.5 -32.4
1990-09-21 18:00:00 15.0 -32.7 15.0 -32.7
1990-09-22 00:00:00 15.6 -33.0 15.6 -33.0
1990-09-22 06:00:00 16.1 -33.2 16.1 -33.2
1990-09-22 12:00:00 16.7 -33.4 16.7 -33.4
1990-09-22 18:00:00 17.4 -33.4 17.4 -33.4
1990-09-23 00:00:00 17.9 -33.5 17.9 -33.5
1990-09-23 06:00:00 18.2 -33.6 18.2 -33.6
1990-09-23 12:00:00 18.5 -33.8 18.5 -33.8
1990-09-23 18:00:00 18.7 -34.0 18.7 -34.0
1990-09-24 00:00:00 19.0 -34.1 19.0 -34.1
1990-09-24 06:00:00 19.1 -34.1 19.1 -34.1
1990-09-24 12:00:00 19.3 -34.2 19.3 -34.2
1990-09-24 18:00:00 19.4 -34.4 19.4 -34.4
1990-09-25 00:00:00 19.5 -34.6 19.5 -34.6
1990-09-25 06:00:00 19.7 -34.8 19.7 -34.8
1990-09-25 12:00:00 19.9 -35.2 19.9 -35.2
1990-09-25 18:00:00 20.1 -35.9 20.1 -35.9
1990-09-26 00:00:00 20.3 -36.8 20.3 -36.8
1990-09-26 06:00:00 20.4 -37.6 20.4 -37.6
1990-09-26 12:00:00 20.3 -38.4 20.3 -38.4
1990-09-26 18:00:00 20.2 -38.9 20.2 -38.9
1990-09-27 00:00:00 20.2 -39.3 20.2 -39.3
1990-09-27 06:00:00 20.2 -39.6 20.2 -39.6
hurdat_atl atcf
1990-09-27 12:00:00 20.3 -40.0 20.3 -40.0
1990-09-27 18:00:00 20.4 -40.4 20.4 -40.4
1990-09-28 00:00:00 20.6 -40.6 20.6 -40.6
1990-09-28 06:00:00 20.9 -40.9 20.9 -40.9
1990-09-28 12:00:00 21.2 -41.2 21.2 -41.2
1990-09-28 18:00:00 21.6 -41.6 21.6 -41.6
1990-09-29 00:00:00 22.0 -42.1 22.0 -42.1
1990-09-29 06:00:00 22.5 -42.8 22.5 -42.8
1990-09-29 12:00:00 23.1 -43.6 23.1 -43.6
1990-09-29 18:00:00 23.8 -44.3 23.8 -44.3
1990-09-30 00:00:00 24.5 -45.0 24.5 -45.0
1990-09-30 06:00:00 25.5 -45.4 25.5 -45.4
1990-09-30 12:00:00 26.7 -45.5 26.7 -45.5
1990-09-30 18:00:00 27.8 -45.3 27.8 -45.3
1990-10-01 00:00:00 28.5 -44.8 28.5 -44.8
1990-10-01 06:00:00 29.1 -43.8 29.1 -43.8
1990-10-01 12:00:00 29.6 -42.4 29.6 -42.4
1990-10-01 18:00:00 29.9 -41.1 29.9 -41.1
1990-10-02 00:00:00 30.0 -40.0 30.0 -40.0
1990-10-02 06:00:00 30.0 -39.4 30.0 -39.4
1990-10-02 12:00:00 29.8 -39.2 29.8 -39.2
1990-10-02 18:00:00 29.6 -39.2 29.6 -39.2
1990-10-03 00:00:00 29.4 -39.4 29.4 -39.4
1990-10-03 06:00:00 29.1 -40.0 29.1 -40.0
hurdat_atl atcf
1990-10-03 12:00:00 28.6 -40.7 28.6 -40.7
1990-10-03 18:00:00 28.3 -41.4 28.3 -41.4
1990-10-04 00:00:00 28.2 -42.1 28.2 -42.1
1990-10-04 06:00:00 28.5 -42.5 28.5 -42.5
1990-10-04 12:00:00 29.0 -42.6 29.0 -42.6
1990-10-04 18:00:00 29.5 -42.3 29.5 -42.3
1990-10-05 00:00:00 30.0 -41.5 30.0 -41.5
1990-10-05 06:00:00 30.7 -40.5 30.7 -40.5
1990-10-05 12:00:00 32.1 -39.3 32.1 -39.3
1990-10-05 18:00:00 34.1 -38.4 34.1 -38.4
1990-10-06 00:00:00 36.5 -38.5 36.5 -38.5
1990-10-06 06:00:00 38.9 -40.0 38.9 -40.0
1990-10-06 12:00:00 41.0 -42.9 41.0 -42.9

top of pageTrack Data:Intensity

hurdat_atl atcf
Date Wind Pres Wind Pres
1990-09-21 06:00:00 30. 1009. 30. 1009.
1990-09-21 12:00:00 30. 1009. 30. 1009.
1990-09-21 18:00:00 30. 1008. 30. 1008.
1990-09-22 00:00:00 30. 1007. 30. 1007.
1990-09-22 06:00:00 30. 1007. 30. 1007.
1990-09-22 12:00:00 30. 1007. 30. 1007.
1990-09-22 18:00:00 30. 1007. 30. 1007.
1990-09-23 00:00:00 30. 1009. 30. 1009.
1990-09-23 06:00:00 30. 1009. 30. 1009.
1990-09-23 12:00:00 30. 1009. 30. 1009.
1990-09-23 18:00:00 30. 1009. 30. 1009.
1990-09-24 00:00:00 30. 1008. 30. 1008.
1990-09-24 06:00:00 30. 1007. 30. 1007.
1990-09-24 12:00:00 35. 1005. 35. 1005.
1990-09-24 18:00:00 35. 1005. 35. 1005.
1990-09-25 00:00:00 40. 1003. 40. 1003.
1990-09-25 06:00:00 40. 1002. 40. 1002.
1990-09-25 12:00:00 40. 1003. 40. 1003.
1990-09-25 18:00:00 35. 1005. 35. 1005.
1990-09-26 00:00:00 35. 1006. 35. 1006.
1990-09-26 06:00:00 30. 1008. 30. 1008.
1990-09-26 12:00:00 30. 1009. 30. 1009.
1990-09-26 18:00:00 30. 1009. 30. 1009.
1990-09-27 00:00:00 30. 1009. 30. 1009.
1990-09-27 06:00:00 30. 1010. 30. 1010.
hurdat_atl atcf
1990-09-27 12:00:00 25. 1012. 25. 1012.
1990-09-27 18:00:00 25. 1012. 25. 1012.
1990-09-28 00:00:00 25. 1012. 25. 1012.
1990-09-28 06:00:00 25. 1012. 25. 1012.
1990-09-28 12:00:00 25. 1012. 25. 1012.
1990-09-28 18:00:00 25. 1012. 25. 1012.
1990-09-29 00:00:00 25. 1012. 25. 1012.
1990-09-29 06:00:00 25. 1012. 25. 1012.
1990-09-29 12:00:00 25. 1010. 25. 1010.
1990-09-29 18:00:00 30. 1009. 30. 1009.
1990-09-30 00:00:00 30. 1009. 30. 1009.
1990-09-30 06:00:00 30. 1009. 30. 1009.
1990-09-30 12:00:00 30. 1009. 30. 1009.
1990-09-30 18:00:00 30. 1009. 30. 1009.
1990-10-01 00:00:00 30. 1009. 30. 1009.
1990-10-01 06:00:00 30. 1007. 30. 1007.
1990-10-01 12:00:00 35. 1005. 35. 1005.
1990-10-01 18:00:00 35. 1005. 35. 1005.
1990-10-02 00:00:00 35. 1005. 35. 1005.
1990-10-02 06:00:00 35. 1004. 35. 1004.
1990-10-02 12:00:00 40. 1003. 40. 1003.
1990-10-02 18:00:00 35. 1005. 35. 1005.
1990-10-03 00:00:00 35. 1005. 35. 1005.
1990-10-03 06:00:00 35. 1005. 35. 1005.
hurdat_atl atcf
1990-10-03 12:00:00 35. 1005. 35. 1005.
1990-10-03 18:00:00 40. 1003. 40. 1003.
1990-10-04 00:00:00 45. 1000. 45. 1000.
1990-10-04 06:00:00 50. 997. 50. 997.
1990-10-04 12:00:00 55. 994. 55. 994.
1990-10-04 18:00:00 60. 990. 60. 990.
1990-10-05 00:00:00 65. 987. 65. 987.
1990-10-05 06:00:00 65. 986. 65. 986.
1990-10-05 12:00:00 70. 984. 70. 984.
1990-10-05 18:00:00 75. 980. 75. 980.
1990-10-06 00:00:00 70. 984. 70. 984.
1990-10-06 06:00:00 70. 985. 70. 985.
1990-10-06 12:00:00 60. 990. 60. 990.

top of page Links to source data

Source Source file Format
hurdat_atl tracks1851to2011.txt:1176:JOSEPHINE HURDAT
atcf bal121990.dat ATCF